Time;durP1;ratioP1;P1;durP2;ratioP2;P2;SDS_P1;SDS_P2;PMS_P1;PMS_P2;Temp;Humidity;BMP_temperature;BMP_pressure;BME280_temperature;BME280_humidity;BME280_pressure;Samples;Min_cycle;Max_cycle;Signal;HPM_P1;HPM_P2
2024/01/02 00:01:56;;;;;;;;;0.00;0.00;;;;;12.51;100.00;99510.31;5122464;27;44806;-82
2024/01/02 00:04:21;;;;;;;;;0.00;0.00;;;;;12.52;100.00;99484.53;5121775;27;45117;-82
2024/01/02 00:06:50;;;;;;;;;0.00;0.00;;;;;12.46;100.00;99489.94;5122074;27;44938;-81
2024/01/02 00:09:15;;;;;;;;;0.00;0.00;;;;;12.51;100.00;99494.31;5121628;27;44727;-82
2024/01/02 00:11:42;;;;;;;;;0.00;0.00;;;;;12.61;100.00;99489.75;5233256;22;45573;-80
2024/01/02 00:14:07;;;;;;;;;0.00;0.00;;;;;12.53;100.00;99487.19;5021193;28;45694;-81
2024/01/02 00:16:33;;;;;;;;;0.00;0.00;;;;;12.59;100.00;99494.22;5020978;28;45256;-81
2024/01/02 00:18:58;;;;;;;;;0.00;0.00;;;;;12.63;100.00;99473.72;5020164;28;45062;-81
2024/01/02 00:21:24;;;;;;;;;0.00;0.00;;;;;12.66;100.00;99465.66;5063043;22;45289;-81
2024/01/02 00:23:49;;;;;;;;;0.00;0.00;;;;;12.62;100.00;99464.81;5043686;28;46715;-81
2024/01/02 00:26:14;;;;;;;;;0.00;0.00;;;;;12.63;100.00;99447.94;5042813;28;45123;-81
2024/01/02 00:28:40;;;;;;;;;0.00;0.00;;;;;12.63;100.00;99444.38;5062012;28;44726;-82
2024/01/02 00:31:06;;;;;;;;;0.00;0.00;;;;;12.62;100.00;99443.47;5087850;22;45149;-81
2024/01/02 00:33:31;;;;;;;;;0.00;0.00;;;;;12.57;100.00;99438.22;5038793;28;47265;-81
2024/01/02 00:35:56;;;;;;;;;0.00;0.00;;;;;12.53;100.00;99420.50;5039157;28;44766;-82
2024/01/02 00:38:25;;;;;;;;;0.00;0.00;;;;;12.49;100.00;99410.78;5039758;28;45192;-82
2024/01/02 00:40:52;;;;;;;;;0.00;0.00;;;;;12.55;100.00;99401.81;5040126;28;44922;-81
2024/01/02 00:43:19;;;;;;;;;0.00;0.00;;;;;12.65;100.00;99392.78;5023536;28;47360;-81
2024/01/02 00:45:44;;;;;;;;;0.00;0.00;;;;;12.61;100.00;99399.06;5038833;28;44906;-81
2024/01/02 00:48:10;;;;;;;;;1.00;0.00;;;;;12.63;100.00;99391.03;5040748;28;44884;-81
2024/01/02 00:50:35;;;;;;;;;0.00;0.00;;;;;12.64;100.00;99379.44;5041935;28;44757;-81
2024/01/02 00:53:03;;;;;;;;;0.00;0.00;;;;;12.64;100.00;99383.00;5040365;28;45258;-81
2024/01/02 00:55:29;;;;;;;;;0.00;0.00;;;;;12.68;100.00;99386.50;5039680;28;44974;-81
2024/01/02 00:57:54;;;;;;;;;0.00;0.00;;;;;12.76;100.00;99384.56;5022558;28;44842;-81
2024/01/02 01:00:20;;;;;;;;;0.00;0.00;;;;;12.81;100.00;99374.72;5040810;28;44908;-81
2024/01/02 01:02:45;;;;;;;;;0.00;0.00;;;;;12.84;100.00;99374.66;5038840;28;47047;-81
2024/01/02 01:05:11;;;;;;;;;0.00;0.00;;;;;12.85;100.00;99371.09;5041020;28;44810;-81
2024/01/02 01:07:36;;;;;;;;;0.00;0.00;;;;;12.88;100.00;99363.03;5039731;28;44841;-81
2024/01/02 01:10:02;;;;;;;;;0.00;0.00;;;;;12.90;100.00;99353.19;5039689;28;44944;-81
2024/01/02 01:12:29;;;;;;;;;0.00;0.00;;;;;13.01;100.00;99347.69;5039835;28;45051;-81
2024/01/02 01:14:54;;;;;;;;;0.00;0.00;;;;;12.92;100.00;99339.84;5039264;28;45193;-80
2024/01/02 01:17:21;;;;;;;;;0.00;0.00;;;;;13.05;100.00;99335.16;5039147;28;44950;-81
2024/01/02 01:19:46;;;;;;;;;0.00;0.00;;;;;12.91;100.00;99328.28;5040131;28;44792;-81
2024/01/02 01:22:11;;;;;;;;;0.00;0.00;;;;;12.90;100.00;99331.84;5040254;28;45085;-81
2024/01/02 01:24:37;;;;;;;;;0.00;0.00;;;;;12.86;100.00;99324.81;5023117;28;45067;-82
2024/01/02 01:27:02;;;;;;;;;0.00;0.00;;;;;12.83;100.00;99316.00;5040592;28;52246;-82
2024/01/02 01:29:28;;;;;;;;;0.25;0.00;;;;;12.84;100.00;99331.09;5039542;28;44786;-81
2024/01/02 01:32:00;;;;;;;;;0.00;0.00;;;;;12.80;100.00;99332.94;5044249;28;44991;-80
2024/01/02 01:34:33;;;;;;;;;0.00;0.00;;;;;12.89;100.00;99327.44;5061539;28;44820;-81
2024/01/02 01:36:58;;;;;;;;;0.00;0.00;;;;;12.74;100.00;99319.69;5043235;28;45248;-81
2024/01/02 01:39:24;;;;;;;;;0.00;0.00;;;;;12.67;100.00;99318.94;5043020;28;44941;-81
2024/01/02 01:41:49;;;;;;;;;1.00;0.00;;;;;12.67;100.00;99312.72;5042600;28;47546;-81
2024/01/02 01:44:16;;;;;;;;;0.00;0.00;;;;;12.64;100.00;99318.97;5044732;28;44819;-81
2024/01/02 01:46:42;;;;;;;;;0.00;0.00;;;;;12.68;100.00;99319.81;5046447;28;44725;-81
2024/01/02 01:49:09;;;;;;;;;0.00;0.00;;;;;12.68;100.00;99320.69;5065083;28;44800;-81
2024/01/02 01:51:39;;;;;;;;;0.00;0.00;;;;;12.75;100.00;99313.47;5046159;28;47707;-80
2024/01/02 01:54:04;;;;;;;;;0.00;0.00;;;;;12.70;100.00;99318.00;5046175;28;45154;-80
2024/01/02 01:56:31;;;;;;;;;0.00;0.00;;;;;12.70;100.00;99307.31;5063727;28;44904;-80
2024/01/02 01:58:58;;;;;;;;;0.00;0.00;;;;;12.66;100.00;99311.81;5046619;28;44817;-81
2024/01/02 02:01:26;;;;;;;;;0.25;0.25;;;;;12.69;100.00;99310.91;5033517;28;46840;-80
2024/01/02 02:03:51;;;;;;;;;0.00;0.00;;;;;12.70;100.00;99318.00;5022546;28;45436;-81
2024/01/02 02:06:17;;;;;;;;;0.00;0.00;;;;;12.66;100.00;99321.63;5041212;28;45445;-80
2024/01/02 02:08:44;;;;;;;;;0.00;0.00;;;;;12.65;100.00;99317.22;5041212;28;45460;-80
2024/01/02 02:11:12;;;;;;;;;2.00;0.00;;;;;12.71;100.00;99314.44;5021798;28;47400;-80
2024/01/02 02:13:38;;;;;;;;;0.00;0.00;;;;;12.68;100.00;99319.81;5039896;28;45339;-80
2024/01/02 02:16:04;;;;;;;;;0.75;0.00;;;;;12.68;100.00;99304.69;5022256;28;45470;-80
2024/01/02 02:18:29;;;;;;;;;0.00;0.00;;;;;12.67;100.00;99296.72;5000611;28;45570;-79
2024/01/02 02:20:55;;;;;;;;;0.00;0.00;;;;;12.70;100.00;99310.00;5020683;28;45525;-80
2024/01/02 02:23:21;;;;;;;;;0.00;0.00;;;;;12.69;100.00;99311.78;5005150;28;45844;-80
2024/01/02 02:25:46;;;;;;;;;0.00;0.00;;;;;12.67;100.00;99299.41;5002174;28;45537;-81
2024/01/02 02:28:12;;;;;;;;;0.00;0.00;;;;;12.76;100.00;99296.53;5003136;28;45392;-80
2024/01/02 02:30:37;;;;;;;;;0.00;0.00;;;;;12.77;100.00;99317.00;5002992;28;47722;-81
2024/01/02 02:33:03;;;;;;;;;0.00;0.00;;;;;12.80;100.00;99311.59;5019786;28;45447;-82
2024/01/02 02:35:28;;;;;;;;;0.00;0.00;;;;;12.79;100.00;99300.03;5021857;28;45415;-81
2024/01/02 02:37:54;;;;;;;;;0.00;0.00;;;;;12.84;100.00;99294.63;5020244;28;45447;-81
2024/01/02 02:40:20;;;;;;;;;0.50;0.00;;;;;12.87;100.00;99289.25;5002472;28;47780;-82
2024/01/02 02:42:45;;;;;;;;;0.00;0.00;;;;;12.90;100.00;99282.94;5002555;28;45404;-81
2024/01/02 02:45:10;;;;;;;;;0.00;0.00;;;;;12.91;100.00;99301.63;5002943;28;45354;-82
2024/01/02 02:47:37;;;;;;;;;0.00;0.00;;;;;12.86;100.00;99291.94;5003109;28;45420;-81
2024/01/02 02:50:05;;;;;;;;;0.00;0.00;;;;;12.94;100.00;99296.19;5004265;28;47320;-81
2024/01/02 02:52:32;;;;;;;;;0.50;0.50;;;;;12.99;100.00;99282.78;5018828;28;45466;-80
2024/01/02 02:54:57;;;;;;;;;0.00;0.00;;;;;12.98;100.00;99295.22;5000632;28;45917;-80
2024/01/02 02:57:23;;;;;;;;;0.00;0.00;;;;;13.02;100.00;99282.72;5020285;28;45373;-80
2024/01/02 02:59:49;;;;;;;;;0.00;0.00;;;;;13.06;100.00;99283.53;5020607;28;45962;-80
2024/01/02 03:02:15;;;;;;;;;0.75;0.75;;;;;13.07;100.00;99279.94;5021652;28;45344;-80
2024/01/02 03:04:40;;;;;;;;;0.00;0.00;;;;;13.08;100.00;99281.72;5022117;28;45426;-80
2024/01/02 03:07:07;;;;;;;;;0.00;0.00;;;;;13.13;100.00;99280.72;5022260;28;45628;-80
2024/01/02 03:09:32;;;;;;;;;0.00;0.00;;;;;13.13;100.00;99288.75;5023690;28;45427;-81
2024/01/02 03:11:58;;;;;;;;;0.00;0.00;;;;;13.15;100.00;99281.56;5018970;28;45436;-82
2024/01/02 03:14:23;;;;;;;;;0.00;0.00;;;;;13.17;100.00;99274.41;5001621;28;45451;-81
2024/01/02 03:16:48;;;;;;;;;0.00;0.00;;;;;13.19;100.00;99280.59;5004080;28;45335;-81
2024/01/02 03:19:14;;;;;;;;;0.00;0.00;;;;;13.19;100.00;99274.41;5003320;28;47060;-81
2024/01/02 03:21:39;;;;;;;;;0.00;0.00;;;;;13.19;100.00;99269.06;5020486;28;45512;-81
2024/01/02 03:24:05;;;;;;;;;0.00;0.00;;;;;13.22;100.00;99282.31;5019879;28;45442;-80
2024/01/02 03:26:30;;;;;;;;;0.00;0.00;;;;;13.24;100.00;99277.84;4999655;28;45432;-80
2024/01/02 03:28:55;;;;;;;;;0.00;0.00;;;;;13.21;100.00;99269.91;5001216;28;46961;-80
2024/01/02 03:31:21;;;;;;;;;0.00;0.00;;;;;13.23;100.00;99278.75;5019502;28;45485;-80
2024/01/02 03:33:47;;;;;;;;;0.00;0.00;;;;;13.27;100.00;99272.44;5018657;28;45816;-80
2024/01/02 03:36:21;;;;;;;;;0.00;0.00;;;;;13.32;100.00;99259.03;5019776;28;45428;-80
2024/01/02 03:38:51;;;;;;;;;0.00;0.00;;;;;13.36;100.00;99268.72;5035562;28;47532;-81
2024/01/02 03:41:17;;;;;;;;;0.00;0.00;;;;;13.30;100.00;99269.72;5025739;28;45092;-80
2024/01/02 03:43:42;;;;;;;;;0.00;0.00;;;;;13.27;100.00;99258.19;5025958;28;44844;-81
2024/01/02 03:46:08;;;;;;;;;0.25;0.00;;;;;13.25;100.00;99257.34;5025846;28;44941;-81
2024/01/02 03:48:34;;;;;;;;;0.00;0.00;;;;;13.20;100.00;99249.44;5043367;28;45264;-81
2024/01/02 03:51:02;;;;;;;;;0.00;0.00;;;;;13.25;100.00;99239.56;5043408;28;44913;-81
2024/01/02 03:53:28;;;;;;;;;0.00;0.00;;;;;13.23;100.00;99249.41;5042887;28;44773;-81
2024/01/02 03:55:54;;;;;;;;;0.00;0.00;;;;;13.29;100.00;99246.63;5042768;28;44817;-81
2024/01/02 03:58:20;;;;;;;;;0.00;0.00;;;;;13.23;100.00;99233.38;5711480;22;46563;-82
2024/01/02 04:00:45;;;;;;;;;0.00;0.00;;;;;13.19;100.00;99235.22;5062352;28;44859;-82
2024/01/02 04:05:46;;;;;;;;;0.00;0.00;;;;;13.18;100.00;99251.25;3176471;26;45148;-81
2024/01/02 04:08:12;;;;;;;;;0.00;0.00;;;;;13.28;100.00;99246.63;5037630;28;46943;-81
2024/01/02 04:10:40;;;;;;;;;0.00;0.00;;;;;13.28;100.00;99268.84;5043363;28;44785;-81
2024/01/02 04:13:06;;;;;;;;;0.00;0.00;;;;;13.21;100.00;99273.44;5038005;28;44828;-80
2024/01/02 04:15:32;;;;;;;;;0.00;0.00;;;;;13.23;100.00;99270.75;5042242;28;44819;-81
2024/01/02 04:17:57;;;;;;;;;0.00;0.00;;;;;13.15;100.00;99252.22;5033838;28;45176;-80
2024/01/02 04:20:23;;;;;;;;;0.00;0.00;;;;;13.10;100.00;99255.88;5023645;28;45133;-81
2024/01/02 04:22:53;;;;;;;;;0.00;0.00;;;;;13.15;100.00;99278.03;5022662;28;44877;-81
2024/01/02 04:25:19;;;;;;;;;0.00;0.00;;;;;13.12;100.00;99268.28;5019090;28;44859;-81
2024/01/02 04:27:44;;;;;;;;;0.00;0.00;;;;;13.13;100.00;99258.50;5021720;28;44910;-81
2024/01/02 04:30:11;;;;;;;;;1.00;0.00;;;;;13.16;100.00;99253.09;5017867;28;44977;-81
2024/01/02 04:32:37;;;;;;;;;0.00;0.00;;;;;13.17;100.00;99250.41;5133019;22;45487;-82
2024/01/02 04:35:03;;;;;;;;;0.00;0.00;;;;;13.18;100.00;99251.25;5040289;28;54757;-81
2024/01/02 04:40:10;;;;;;;;;0.00;0.00;;;;;13.27;100.00;99252.84;5265424;22;46949;-82
2024/01/02 04:47:46;;;;;;;;;0.00;0.00;;;;;13.11;100.00;99233.59;5094627;22;45313;-81
2024/01/02 04:50:12;;;;;;;;;0.00;0.00;;;;;13.14;100.00;99253.13;5025164;28;45089;-81
2024/01/02 04:55:13;;;;;;;;;0.00;0.00;;;;;13.15;100.00;99262.03;5473933;22;44965;-80
2024/01/02 04:57:39;;;;;;;;;0.00;0.00;;;;;13.06;100.00;99249.72;5060968;28;46333;-81
2024/01/02 05:00:05;;;;;;;;;0.00;0.00;;;;;13.14;100.00;99261.13;5044565;28;45044;-80
2024/01/02 05:02:31;;;;;;;;;0.00;0.00;;;;;13.08;100.00;99253.25;5062887;28;44848;-80
2024/01/02 05:04:56;;;;;;;;;0.00;0.00;;;;;13.12;100.00;99246.94;5063810;28;44733;-80
2024/01/02 05:07:21;;;;;;;;;0.00;0.00;;;;;13.12;100.00;99246.06;5063523;28;45004;-81
2024/01/02 05:09:47;;;;;;;;;0.00;0.00;;;;;13.13;100.00;99243.38;5045691;28;44868;-81
2024/01/02 05:14:48;;;;;;;;;0.00;0.00;;;;;13.02;100.00;99248.91;5140657;22;45241;-81
2024/01/02 05:17:14;;;;;;;;;0.00;0.00;;;;;12.96;100.00;99242.81;5147281;22;45675;-80
2024/01/02 05:19:46;;;;;;;;;0.00;0.00;;;;;12.88;100.00;99234.06;5065626;28;44777;-81
2024/01/02 05:22:12;;;;;;;;;0.00;0.00;;;;;12.87;100.00;99241.22;5066719;28;44946;-81
2024/01/02 05:34:59;;;;;;;;;0.00;0.00;;;;;12.76;100.00;99222.72;5908649;22;45489;-81
2024/01/02 05:44:09;;;;;;;;;0.00;0.00;;;;;12.94;100.00;99228.63;5259758;23;45097;-81
2024/01/02 05:46:35;;;;;;;;;0.00;0.00;;;;;12.79;100.00;99219.13;4987172;28;44908;-79
2024/01/02 05:59:21;;;;;;;;;0.00;0.00;;;;;12.77;100.00;99196.94;4984947;23;45136;-81
2024/01/02 06:01:47;;;;;;;;;0.00;0.00;;;;;12.76;100.00;99220.06;4986099;28;44994;-81
2024/01/02 06:04:12;;;;;;;;;0.00;0.00;;;;;12.79;100.00;99216.47;5178168;22;44969;-81
2024/01/02 06:06:37;;;;;;;;;0.00;0.00;;;;;13.12;100.00;99217.56;4986278;28;44821;-81
2024/01/02 06:09:03;;;;;;;;;0.00;0.00;;;;;13.21;100.00;99197.81;4986522;28;45567;-81
2024/01/02 06:11:29;;;;;;;;;1.00;0.00;;;;;12.87;100.00;99198.53;4986418;28;44890;-82
2024/01/02 06:13:55;;;;;;;;;0.00;0.00;;;;;12.86;100.00;99218.09;4985869;28;45147;-82
2024/01/02 06:16:20;;;;;;;;;0.00;0.00;;;;;12.86;100.00;99212.75;4986411;28;44812;-81
2024/01/02 06:18:45;;;;;;;;;1.25;1.25;;;;;12.85;100.00;99211.00;4977900;28;50793;-81
2024/01/02 06:21:11;;;;;;;;;0.00;0.00;;;;;12.80;100.00;99200.44;4967403;28;44795;-81
2024/01/02 06:23:36;;;;;;;;;0.00;0.00;;;;;12.76;100.00;99211.19;4966867;28;44772;-81
2024/01/02 06:26:01;;;;;;;;;1.00;1.00;;;;;12.75;100.00;99214.78;4965954;28;44789;-82
2024/01/02 06:28:27;;;;;;;;;0.75;0.75;;;;;12.71;100.00;99202.41;4949501;28;47981;-82
2024/01/02 06:33:27;;;;;;;;;0.00;0.00;;;;;13.09;100.00;99192.72;5021261;23;44879;-81
2024/01/02 06:35:54;;;;;;;;;0.00;0.00;;;;;13.17;100.00;99188.13;4968263;28;44764;-81
2024/01/02 06:40:54;;;;;;;;;0.25;0.25;;;;;12.83;100.00;99196.81;5145629;22;45818;-81
2024/01/02 06:43:20;;;;;;;;;0.00;0.00;;;;;12.85;100.00;99195.00;5211707;22;46647;-81
2024/01/02 06:53:31;;;;;;;;;0.00;0.00;;;;;12.77;100.00;99179.16;5495877;22;46941;-81
2024/01/02 06:58:32;;;;;;;;;0.00;0.00;;;;;12.81;100.00;99172.84;5090212;23;45394;-82
2024/01/02 07:00:57;;;;;;;;;0.00;0.00;;;;;12.79;100.00;99177.31;4985735;28;44778;-82
2024/01/02 07:03:24;;;;;;;;;0.00;0.00;;;;;12.87;100.00;99171.84;5373239;22;45737;-82
2024/01/02 07:05:50;;;;;;;;;0.00;0.00;;;;;12.68;100.00;99149.09;4969595;28;44895;-81
2024/01/02 07:08:15;;;;;;;;;2.00;0.00;;;;;12.74;100.00;99168.53;4985215;28;50630;-81
2024/01/02 07:10:41;;;;;;;;;0.00;0.00;;;;;12.74;100.00;99181.00;4968224;28;44855;-81
2024/01/02 07:13:12;;;;;;;;;0.00;0.00;;;;;12.86;100.00;99163.84;4985688;28;45065;-82
2024/01/02 07:15:38;;;;;;;;;0.00;0.00;;;;;12.74;100.00;99171.19;4966419;28;44884;-82
2024/01/02 07:18:03;;;;;;;;;0.00;0.00;;;;;12.73;100.00;99166.78;4984189;28;45070;-82
2024/01/02 07:20:28;;;;;;;;;0.75;0.00;;;;;12.72;100.00;99153.47;4981867;28;44897;-84
2024/01/02 07:22:57;;;;;;;;;0.00;0.00;;;;;12.72;100.00;99157.00;4979495;28;44959;-82
2024/01/02 07:25:22;;;;;;;;;0.25;0.00;;;;;12.67;100.00;99168.69;4963474;28;45053;-83
2024/01/02 07:27:48;;;;;;;;;0.00;0.00;;;;;12.66;100.00;99161.59;4964165;28;47191;-83
2024/01/02 07:30:13;;;;;;;;;0.75;0.75;;;;;12.71;100.00;99168.59;4966251;28;44890;-82
2024/01/02 07:32:39;;;;;;;;;0.00;0.00;;;;;12.66;100.00;99154.47;4963951;28;44909;-82
2024/01/02 07:35:05;;;;;;;;;0.00;0.00;;;;;12.71;100.00;99163.25;4961938;28;44908;-82
2024/01/02 07:37:31;;;;;;;;;0.00;0.00;;;;;12.67;100.00;99150.03;4978182;28;45056;-83
2024/01/02 07:39:57;;;;;;;;;0.00;0.00;;;;;12.65;100.00;99138.50;4961039;28;44908;-83
2024/01/02 07:42:22;;;;;;;;;0.00;0.00;;;;;12.65;100.00;99159.84;4960813;28;44786;-82
2024/01/02 07:44:48;;;;;;;;;0.00;0.00;;;;;12.64;100.00;99161.59;4960982;28;44950;-83
2024/01/02 07:47:16;;;;;;;;;0.00;0.00;;;;;12.64;100.00;99158.94;4960693;28;47470;-81
2024/01/02 07:49:42;;;;;;;;;0.25;0.25;;;;;12.63;100.00;99149.19;4960865;28;44891;-82
2024/01/02 07:52:08;;;;;;;;;0.00;0.00;;;;;12.63;100.00;99159.00;4960867;28;44845;-83
2024/01/02 07:54:37;;;;;;;;;0.00;0.00;;;;;12.74;100.00;99156.97;4957499;28;44859;-83
2024/01/02 07:57:02;;;;;;;;;0.00;0.00;;;;;12.60;100.00;99144.81;4971753;28;45848;-80
2024/01/02 07:59:28;;;;;;;;;1.00;1.00;;;;;12.65;100.00;99152.72;4975916;28;45343;-84
2024/01/02 08:01:53;;;;;;;;;0.00;0.00;;;;;12.64;100.00;99150.06;4954402;28;45082;-80
2024/01/02 08:04:18;;;;;;;;;0.00;0.00;;;;;12.68;100.00;99149.97;4969000;28;44818;-84
2024/01/02 08:06:44;;;;;;;;;0.00;0.00;;;;;12.62;100.00;99118.09;4972926;28;45171;-81
2024/01/02 08:09:09;;;;;;;;;0.75;0.00;;;;;12.68;100.00;99125.09;4950288;28;45755;-81
2024/01/02 08:11:35;;;;;;;;;1.00;0.00;;;;;12.68;100.00;99107.28;4969272;28;44827;-82
2024/01/02 08:14:00;;;;;;;;;0.00;0.00;;;;;12.72;100.00;99126.78;4972672;28;45556;-81
2024/01/02 08:16:26;;;;;;;;;0.00;0.00;;;;;12.73;100.00;99134.78;4969920;28;50343;-81
2024/01/02 08:18:51;;;;;;;;;0.00;0.00;;;;;12.71;100.00;99138.38;4954030;28;45101;-82
2024/01/02 08:21:17;;;;;;;;;0.00;0.00;;;;;12.80;100.00;99123.06;4949749;28;46030;-82
2024/01/02 08:23:43;;;;;;;;;0.00;0.00;;;;;12.73;100.00;99125.91;4974276;28;44837;-81
2024/01/02 08:26:12;;;;;;;;;0.25;0.00;;;;;12.85;100.00;99125.63;4973426;28;45211;-82
2024/01/02 08:28:38;;;;;;;;;0.00;0.00;;;;;12.75;100.00;99134.75;4971924;28;46471;-81
2024/01/02 08:31:05;;;;;;;;;0.25;0.00;;;;;12.89;100.00;99132.66;4947347;28;44899;-80
2024/01/02 08:33:30;;;;;;;;;0.00;0.00;;;;;12.85;100.00;99114.97;4951757;28;45505;-80
2024/01/02 08:35:56;;;;;;;;;0.00;0.00;;;;;12.86;100.00;99127.38;4976982;28;45156;-81
2024/01/02 08:38:21;;;;;;;;;1.00;0.00;;;;;12.90;100.00;99128.19;4968719;28;45045;-79
2024/01/02 08:40:47;;;;;;;;;0.00;0.00;;;;;12.94;100.00;99114.75;4955624;28;44719;-81
2024/01/02 08:43:13;;;;;;;;;0.00;0.00;;;;;12.95;100.00;99115.66;4962466;28;44906;-79
2024/01/02 08:45:38;;;;;;;;;0.00;0.00;;;;;12.91;100.00;99098.81;4975637;28;45014;-81
2024/01/02 08:54:47;;;;;;;;;0.00;0.00;;;;;12.91;100.00;99096.16;4979474;28;44903;-80
2024/01/02 08:57:13;;;;;;;;;0.00;0.00;;;;;12.96;100.00;99096.91;4964318;28;47190;-80
2024/01/02 08:59:41;;;;;;;;;0.25;0.00;;;;;13.06;100.00;99080.72;4977373;28;44908;-82
2024/01/02 09:02:06;;;;;;;;;0.00;0.00;;;;;12.98;100.00;99067.53;4962725;28;44927;-80
2024/01/02 09:04:32;;;;;;;;;0.00;0.00;;;;;12.99;100.00;99088.84;4971740;28;45585;-81
2024/01/02 09:09:40;;;;;;;;;0.00;0.00;;;;;12.91;100.00;99040.13;4125513;26;45978;-80
2024/01/02 09:12:08;;;;;;;;;0.00;0.00;;;;;12.95;100.00;99057.81;4965649;28;44920;-81
2024/01/02 09:14:35;;;;;;;;;2.50;1.25;;;;;13.07;100.00;99087.78;4977753;28;45091;-81
2024/01/02 09:17:01;;;;;;;;;1.00;0.50;;;;;13.04;100.00;99064.72;4977855;28;47183;-82
2024/01/02 09:19:26;;;;;;;;;0.00;0.00;;;;;13.12;100.00;99075.22;4989505;28;44851;-81
2024/01/02 09:21:51;;;;;;;;;0.00;0.00;;;;;13.10;100.00;99066.38;4991563;28;44954;-81
2024/01/02 09:24:20;;;;;;;;;0.00;0.00;;;;;13.20;100.00;99067.91;4980290;28;45052;-82
2024/01/02 09:26:50;;;;;;;;;0.00;0.00;;;;;13.15;100.00;99048.47;4979419;28;47118;-82
2024/01/02 09:29:15;;;;;;;;;0.00;0.00;;;;;13.13;100.00;99058.31;4978552;28;44939;-81
2024/01/02 09:31:43;;;;;;;;;1.00;1.00;;;;;13.28;100.00;99067.75;4995289;28;44866;-82
2024/01/02 09:34:10;;;;;;;;;0.00;0.00;;;;;13.25;100.00;99065.13;4997505;28;44921;-81
2024/01/02 09:36:37;;;;;;;;;0.00;0.00;;;;;13.17;100.00;99063.53;4967839;28;45304;-81
2024/01/02 09:39:06;;;;;;;;;0.00;0.00;;;;;13.19;100.00;99036.81;5093887;23;44969;-80
2024/01/02 09:41:52;;;;;;;;;0.00;0.00;;;;;13.35;100.00;99056.91;4982735;28;44788;-81
2024/01/02 09:44:27;;;;;;;;;0.00;0.00;;;;;13.26;100.00;99054.41;4966452;28;44818;-81
2024/01/02 09:47:18;;;;;;;;;0.75;0.00;;;;;13.47;100.00;99060.19;4964622;28;46726;-81
2024/01/02 09:50:06;;;;;;;;;1.25;1.25;;;;;13.49;100.00;99053.00;4965635;28;45294;-80
2024/01/02 09:53:00;;;;;;;;;1.00;1.00;;;;;13.55;100.00;99051.09;4960885;28;44864;-80
2024/01/02 09:55:56;;;;;;;;;0.00;0.00;;;;;13.58;100.00;99058.13;4994572;23;44919;-81
2024/01/02 09:58:33;;;;;;;;;0.00;0.00;;;;;13.56;100.00;99052.81;4946830;28;47023;-81
2024/01/02 10:01:16;;;;;;;;;0.00;0.00;;;;;13.65;100.00;99048.16;4947156;28;44826;-81
2024/01/02 10:03:57;;;;;;;;;0.75;0.50;;;;;13.49;100.00;99040.56;4962145;28;44910;-81
2024/01/02 10:06:54;;;;;;;;;1.50;1.00;;;;;13.67;100.00;99041.84;4963297;28;44973;-81
2024/01/02 10:09:53;;;;;;;;;0.00;0.00;;;;;13.70;100.00;99035.59;4992403;23;45863;-81
2024/01/02 10:12:32;;;;;;;;;0.25;0.25;;;;;13.68;100.00;99042.75;4980200;28;45648;-80
2024/01/02 10:18:00;;;;;;;;;4.33;4.33;;;;;13.42;100.00;99011.38;5429364;23;45176;-81
2024/01/02 10:20:43;;;;;;;;;0.75;0.75;;;;;13.62;100.00;99034.91;4959621;28;46026;-82
2024/01/02 10:23:27;;;;;;;;;0.00;0.00;;;;;13.38;100.00;98991.88;4957745;28;44798;-82
2024/01/02 10:26:00;;;;;;;;;0.00;0.00;;;;;13.49;100.00;99050.34;4958739;28;45548;-81
2024/01/02 10:32:12;;;;;;;;;0.00;0.00;;;;;13.59;100.00;99033.16;4952222;28;44894;-81
2024/01/02 10:35:10;;;;;;;;;0.00;0.00;;;;;13.56;100.00;99028.78;4952275;28;45360;-81
2024/01/02 10:45:37;;;;;;;;;0.00;0.00;;;;;13.52;100.00;99010.22;4992517;22;45702;-81
2024/01/02 10:48:28;;;;;;;;;0.00;0.00;;;;;13.44;100.00;98990.84;4955426;28;44785;-81
2024/01/02 10:53:54;;;;;;;;;1.00;0.00;;;;;13.57;100.00;99009.19;5850833;23;46795;-81
2024/01/02 10:56:38;;;;;;;;;0.00;0.00;;;;;13.52;100.00;99004.88;4965558;28;45052;-79
2024/01/02 10:59:15;;;;;;;;;0.00;0.00;;;;;13.60;100.00;99003.75;4941373;28;44784;-81
2024/01/02 11:01:46;;;;;;;;;0.00;0.00;;;;;13.56;100.00;98988.72;4943172;28;44877;-81
2024/01/02 11:04:50;;;;;;;;;0.00;0.00;;;;;13.60;100.00;98994.88;4943964;28;47073;-81
2024/01/02 11:07:21;;;;;;;;;0.00;0.00;;;;;13.58;100.00;98988.69;4853505;29;45056;-81
2024/01/02 11:10:13;;;;;;;;;0.00;0.00;;;;;13.63;100.00;98981.41;4859582;29;44894;-81
2024/01/02 11:12:54;;;;;;;;;0.00;0.00;;;;;13.62;100.00;98989.50;4885724;29;44851;-81
2024/01/02 11:15:21;;;;;;;;;0.00;0.00;;;;;13.51;100.00;98981.75;4865563;29;45170;-82
2024/01/02 11:17:52;;;;;;;;;0.50;0.50;;;;;13.58;100.00;98976.22;4884724;29;44861;-81
2024/01/02 11:23:14;;;;;;;;;2.00;1.50;;;;;13.72;100.00;98974.97;5289978;23;45623;-82
2024/01/02 11:25:57;;;;;;;;;0.25;0.00;;;;;13.75;100.00;98985.56;4984646;28;45190;-82
2024/01/02 11:28:25;;;;;;;;;0.25;0.25;;;;;13.71;100.00;98955.38;4965086;28;45336;-81
2024/01/02 11:30:52;;;;;;;;;1.50;1.50;;;;;13.63;100.00;98957.38;4970130;28;44780;-82
2024/01/02 11:44:25;;;;;;;;;3.25;2.00;;;;;13.79;100.00;98925.78;5758188;23;46312;-81
2024/01/02 11:47:00;;;;;;;;;1.75;1.75;;;;;13.76;100.00;98907.19;4964238;28;46748;-80
2024/01/02 11:49:28;;;;;;;;;1.25;1.25;;;;;13.65;100.00;98879.88;4945961;28;44765;-82
2024/01/02 11:52:10;;;;;;;;;2.00;2.00;;;;;13.76;100.00;98891.16;4963571;28;44852;-80
2024/01/02 12:34:28;;;;;;;;;0.00;0.00;;;;;14.21;100.00;98763.22;5085590;22;45502;-84
2024/01/02 12:50:20;;;;;;;;;0.00;0.00;;;;;13.83;100.00;98694.97;5546244;22;46388;-82
2024/01/02 12:57:59;;;;;;;;;0.00;0.00;;;;;13.87;100.00;98707.31;5402719;23;46767;-81
2024/01/02 13:00:25;;;;;;;;;0.00;0.00;;;;;13.68;100.00;98699.03;5002274;28;44887;-83
2024/01/02 13:02:51;;;;;;;;;0.00;0.00;;;;;13.69;100.00;98691.88;4995705;28;45375;-80
2024/01/02 13:05:20;;;;;;;;;0.00;0.00;;;;;13.53;100.00;98696.81;5001856;28;44759;-80
2024/01/02 13:11:07;;;;;;;;;1.00;0.00;;;;;13.33;100.00;98657.38;4995385;28;44971;-81
2024/01/02 13:13:34;;;;;;;;;1.25;0.00;;;;;13.35;100.00;98683.13;4981651;28;46762;-81
2024/01/02 13:16:03;;;;;;;;;0.00;0.00;;;;;13.28;100.00;98660.16;4998352;28;44799;-80
2024/01/02 13:18:28;;;;;;;;;0.00;0.00;;;;;13.08;100.00;98660.75;4966476;28;45411;-80
2024/01/02 13:20:55;;;;;;;;;0.00;0.00;;;;;13.07;100.00;98671.47;4981850;28;45035;-81
2024/01/02 13:23:22;;;;;;;;;0.00;0.00;;;;;13.19;100.00;98661.31;4961421;28;47407;-80
2024/01/02 13:25:47;;;;;;;;;1.60;0.00;;;;;13.19;100.00;98661.31;5001980;28;45244;-80
2024/01/02 13:28:18;;;;;;;;;0.50;0.50;;;;;13.36;100.00;98647.47;4991239;28;44898;-80
2024/01/02 13:30:52;;;;;;;;;1.00;1.00;;;;;13.35;100.00;98643.09;4979399;28;44879;-81
2024/01/02 13:33:20;;;;;;;;;2.00;0.25;;;;;13.28;100.00;98627.25;4977132;28;46939;-81
2024/01/02 13:39:07;;;;;;;;;1.00;1.00;;;;;13.28;100.00;98612.09;4993693;28;44896;-80
2024/01/02 13:41:42;;;;;;;;;0.00;0.00;;;;;13.44;100.00;98622.34;5007001;28;44788;-80
2024/01/02 13:44:08;;;;;;;;;1.75;0.75;;;;;13.30;100.00;98604.09;5007796;28;45483;-81
2024/01/02 13:46:36;;;;;;;;;1.00;1.00;;;;;13.37;100.00;98616.31;5004622;28;45408;-82
2024/01/02 13:49:02;;;;;;;;;1.00;1.00;;;;;13.36;100.00;98588.75;5007960;28;44931;-81
2024/01/02 13:51:31;;;;;;;;;1.25;1.00;;;;;13.48;100.00;98583.94;4990398;28;44818;-80
2024/01/02 13:56:41;;;;;;;;;1.00;1.00;;;;;13.37;100.00;98594.94;5374053;23;45801;-83
2024/01/02 13:59:11;;;;;;;;;1.50;0.75;;;;;13.40;100.00;98594.88;4937371;28;44699;-80
2024/01/02 14:09:31;;;;;;;;;0.50;0.50;;;;;13.56;100.00;98569.41;4732439;23;47112;-82
2024/01/02 14:12:00;;;;;;;;;0.75;0.75;;;;;13.47;100.00;98555.47;4971632;28;44954;-83
2024/01/02 14:17:13;;;;;;;;;1.00;1.00;;;;;13.55;100.00;98518.72;4837138;26;44905;-81
2024/01/02 14:19:53;;;;;;;;;1.00;1.00;;;;;13.85;100.00;98574.69;4985151;28;44774;-81
2024/01/02 14:22:38;;;;;;;;;2.75;2.00;;;;;13.90;100.00;98583.44;4985563;28;44804;-80
2024/01/02 14:25:22;;;;;;;;;3.75;2.25;;;;;13.84;100.00;98548.94;4964795;28;47497;-81
2024/01/02 14:30:31;;;;;;;;;0.50;0.50;;;;;13.50;100.00;98550.06;5060659;22;44964;-81